createdAt,value
2017-09-11T00:01:45.342Z,2.47
2017-09-11T00:04:12.734Z,2.60
2017-09-11T00:06:40.118Z,2.67
2017-09-11T00:09:07.511Z,2.93
2017-09-11T00:11:34.899Z,2.50
2017-09-11T00:14:02.282Z,2.50
2017-09-11T00:16:29.690Z,2.80
2017-09-11T00:18:57.079Z,3.00
2017-09-11T00:21:24.474Z,2.47
2017-09-11T00:23:51.870Z,2.20
2017-09-11T00:26:19.258Z,3.10
2017-09-11T00:28:46.642Z,3.37
2017-09-11T00:31:14.042Z,2.83
2017-09-11T00:33:41.422Z,3.13
2017-09-11T00:36:08.818Z,3.00
2017-09-11T00:38:36.203Z,3.20
2017-09-11T00:41:03.590Z,2.73
2017-09-11T00:43:30.996Z,3.27
2017-09-11T00:45:58.374Z,2.97
2017-09-11T00:48:25.756Z,3.80
2017-09-11T00:50:53.143Z,2.97
2017-09-11T00:53:20.528Z,2.60
2017-09-11T00:55:47.918Z,3.60
2017-09-11T00:58:15.302Z,3.20
2017-09-11T01:00:42.683Z,3.00
2017-09-11T01:03:10.069Z,3.10
2017-09-11T01:05:37.442Z,2.80
2017-09-11T01:08:04.831Z,2.80
2017-09-11T01:10:32.249Z,2.67
2017-09-11T01:12:59.675Z,2.97
2017-09-11T01:15:27.168Z,3.50
2017-09-11T01:17:54.554Z,3.10
2017-09-11T01:20:21.942Z,2.80
2017-09-11T01:22:49.331Z,2.50
2017-09-11T01:25:16.790Z,2.77
2017-09-11T01:27:44.179Z,2.97
2017-09-11T01:30:11.566Z,3.85
2017-09-11T01:32:38.969Z,3.20
2017-09-11T01:35:06.415Z,2.80
2017-09-11T01:37:33.798Z,3.00
2017-09-11T01:40:01.215Z,2.57
2017-09-11T01:42:28.599Z,3.07
2017-09-11T01:44:55.982Z,3.27
2017-09-11T01:47:23.486Z,2.30
2017-09-11T01:49:50.875Z,2.87
2017-09-11T01:52:18.250Z,2.60
2017-09-11T01:54:45.651Z,2.77
2017-09-11T01:57:13.031Z,2.50
2017-09-11T01:59:40.506Z,3.37
2017-09-11T02:02:35.570Z,2.30
2017-09-11T02:05:02.957Z,2.83
2017-09-11T02:07:30.327Z,2.70
2017-09-11T02:09:57.718Z,2.53
2017-09-11T02:12:25.106Z,2.57
2017-09-11T02:14:52.491Z,2.33
2017-09-11T02:17:19.883Z,2.23
2017-09-11T02:19:47.274Z,1.93
2017-09-11T02:22:14.655Z,2.00
2017-09-11T02:24:42.048Z,2.40
2017-09-11T02:27:09.522Z,2.17
2017-09-11T02:29:36.984Z,2.17
2017-09-11T02:32:04.375Z,2.30
2017-09-11T02:34:31.769Z,2.20
2017-09-11T02:36:59.156Z,2.00
2017-09-11T02:39:26.538Z,1.80
2017-09-11T02:41:53.921Z,2.03
2017-09-11T02:44:21.311Z,2.13
2017-09-11T02:46:48.690Z,2.37
2017-09-11T02:49:16.122Z,2.17
2017-09-11T02:51:43.518Z,1.70
2017-09-11T02:54:10.886Z,2.00
2017-09-11T02:56:38.386Z,1.90
2017-09-11T02:59:05.771Z,1.73
2017-09-11T03:01:33.162Z,2.10
2017-09-11T03:04:00.553Z,1.53
2017-09-11T03:06:28.018Z,2.00
2017-09-11T03:08:55.470Z,1.97
2017-09-11T03:11:22.927Z,1.70
2017-09-11T03:13:50.306Z,1.73
2017-09-11T03:16:17.694Z,2.00
2017-09-11T03:18:45.074Z,1.80
2017-09-11T03:21:12.554Z,1.30
2017-09-11T03:23:39.930Z,1.83
2017-09-11T03:26:07.319Z,1.57
2017-09-11T03:28:34.730Z,1.70
2017-09-11T03:31:02.115Z,2.00
2017-09-11T03:33:29.498Z,1.77
2017-09-11T03:35:56.981Z,1.73
2017-09-11T03:38:24.363Z,2.13
2017-09-11T03:40:51.751Z,1.73
2017-09-11T03:43:19.154Z,1.60
2017-09-11T03:45:46.539Z,1.60
2017-09-11T03:48:13.930Z,1.30
2017-09-11T03:50:41.314Z,1.60
2017-09-11T03:53:08.711Z,1.40
2017-09-11T03:55:36.091Z,1.33
2017-09-11T03:58:03.482Z,1.70
2017-09-11T04:00:30.866Z,1.13
2017-09-11T04:02:58.254Z,1.23
2017-09-11T04:05:25.633Z,1.43
2017-09-11T04:07:53.015Z,1.43
2017-09-11T04:10:20.389Z,1.23
2017-09-11T04:12:47.774Z,1.53
2017-09-11T04:15:15.150Z,1.57
2017-09-11T04:17:42.547Z,1.20
2017-09-11T04:20:09.925Z,1.70
2017-09-11T04:22:37.316Z,1.37
2017-09-11T04:25:04.746Z,1.83
2017-09-11T04:27:32.276Z,1.70
2017-09-11T04:29:59.624Z,1.70
2017-09-11T04:32:27.011Z,1.33
2017-09-11T04:34:54.424Z,1.70
2017-09-11T04:37:21.822Z,1.33
2017-09-11T04:39:49.206Z,1.80
2017-09-11T04:42:16.592Z,1.60
2017-09-11T04:44:43.983Z,1.80
2017-09-11T04:47:11.354Z,1.73
2017-09-11T04:49:38.750Z,1.57
2017-09-11T04:52:06.135Z,1.30
2017-09-11T04:54:33.539Z,1.47
2017-09-11T04:57:00.917Z,1.53
2017-09-11T04:59:28.306Z,2.30
2017-09-11T05:01:55.746Z,1.93
2017-09-11T05:04:23.129Z,1.53
2017-09-11T05:06:50.507Z,2.07
2017-09-11T05:09:17.898Z,1.50
2017-09-11T05:11:45.339Z,1.70
2017-09-11T05:14:12.727Z,1.33
2017-09-11T05:16:40.111Z,1.43
2017-09-11T05:19:07.491Z,1.87
2017-09-11T05:21:34.876Z,2.20
2017-09-11T05:24:02.317Z,1.57
2017-09-11T05:26:29.702Z,1.43
2017-09-11T05:28:57.096Z,1.20
2017-09-11T05:31:24.486Z,1.50
2017-09-11T05:33:51.866Z,1.73
2017-09-11T05:36:19.258Z,1.20
2017-09-11T05:38:46.643Z,1.13
2017-09-11T05:41:14.038Z,1.60
2017-09-11T05:43:41.423Z,1.97
2017-09-11T05:46:08.806Z,1.70
2017-09-11T05:48:36.191Z,2.03
2017-09-11T05:51:03.631Z,1.70
2017-09-11T05:53:31.015Z,1.10
2017-09-11T05:55:58.406Z,1.73
2017-09-11T05:58:25.783Z,1.50
2017-09-11T06:00:53.171Z,1.23
2017-09-11T06:03:20.547Z,1.20
2017-09-11T06:05:47.936Z,1.80
2017-09-11T06:08:15.914Z,1.63
2017-09-11T06:10:43.350Z,1.20
2017-09-11T06:13:10.719Z,1.53
2017-09-11T06:15:38.208Z,1.73
2017-09-11T06:18:06.076Z,1.10
2017-09-11T06:20:33.438Z,1.50
2017-09-11T06:23:00.826Z,3.00
2017-09-11T06:25:28.210Z,1.70
2017-09-11T06:27:55.617Z,1.80
2017-09-11T06:30:23.024Z,1.37
2017-09-11T06:32:50.418Z,1.57
2017-09-11T06:35:17.811Z,1.50
2017-09-11T06:37:45.198Z,1.50
2017-09-11T06:40:12.578Z,0.90
2017-09-11T06:42:40.020Z,1.30
2017-09-11T06:45:07.398Z,1.30
2017-09-11T06:47:34.826Z,1.17
2017-09-11T06:50:02.206Z,1.30
2017-09-11T06:52:29.596Z,1.00
2017-09-11T06:54:56.970Z,1.43
2017-09-11T06:57:24.394Z,1.23
2017-09-11T06:59:51.786Z,1.20
2017-09-11T07:02:19.311Z,1.13
2017-09-11T07:04:46.698Z,1.17
2017-09-11T07:07:14.170Z,0.90
2017-09-11T07:09:41.547Z,0.90
2017-09-11T07:12:20.878Z,1.10
2017-09-11T07:14:48.335Z,2.17
2017-09-11T07:17:15.695Z,1.40
2017-09-11T07:19:43.074Z,1.00
2017-09-11T07:22:10.450Z,1.53
2017-09-11T07:24:37.858Z,1.40
2017-09-11T07:27:05.247Z,1.03
2017-09-11T07:29:32.669Z,1.10
2017-09-11T07:32:00.097Z,1.40
2017-09-11T07:34:27.562Z,1.20
2017-09-11T07:36:55.014Z,1.30
2017-09-11T07:39:22.402Z,1.30
2017-09-11T07:41:49.827Z,1.30
2017-09-11T07:44:17.221Z,1.27
2017-09-11T07:46:44.614Z,1.10
2017-09-11T07:49:11.998Z,1.33
2017-09-11T07:51:39.382Z,1.10
2017-09-11T07:54:06.778Z,0.90
2017-09-11T07:56:34.432Z,1.17
2017-09-11T07:59:01.815Z,1.07
2017-09-11T08:01:29.204Z,1.10
2017-09-11T08:03:56.939Z,0.80
2017-09-11T08:06:25.371Z,1.13
2017-09-11T08:08:52.759Z,1.00
2017-09-11T08:11:20.233Z,1.33
2017-09-11T08:13:47.607Z,0.90
2017-09-11T08:16:14.999Z,1.33
2017-09-11T08:18:42.378Z,1.10
2017-09-11T08:21:09.926Z,1.00
2017-09-11T08:23:37.303Z,1.33
2017-09-11T08:26:04.691Z,1.03
2017-09-11T08:28:32.098Z,0.93
2017-09-11T08:30:59.486Z,1.00
2017-09-11T08:33:26.871Z,1.20
2017-09-11T08:35:54.258Z,0.80
2017-09-11T08:38:21.694Z,1.00
2017-09-11T08:40:49.119Z,1.30
2017-09-11T08:43:16.575Z,1.20
2017-09-11T08:45:44.031Z,0.87
2017-09-11T08:48:11.414Z,1.27
2017-09-11T08:50:38.806Z,1.20
2017-09-11T08:53:06.169Z,1.00
2017-09-11T08:55:33.663Z,1.13
2017-09-11T08:58:01.038Z,1.17
2017-09-11T09:00:28.438Z,1.07
2017-09-11T09:02:55.806Z,1.10
2017-09-11T09:05:23.197Z,0.83
2017-09-11T09:07:50.578Z,1.30
2017-09-11T09:10:17.971Z,1.00
2017-09-11T09:12:45.352Z,1.20
2017-09-11T09:15:12.802Z,1.10
2017-09-11T09:17:40.191Z,1.00
2017-09-11T09:20:07.580Z,1.20
2017-09-11T09:22:34.968Z,1.00
2017-09-11T09:25:02.347Z,1.40
2017-09-11T09:27:29.750Z,1.00
2017-09-11T09:29:57.118Z,1.10
2017-09-11T09:32:24.509Z,0.73
2017-09-11T09:34:51.900Z,0.90
2017-09-11T09:37:19.296Z,1.00
2017-09-11T09:39:46.682Z,0.80
2017-09-11T09:42:14.066Z,1.17
2017-09-11T09:44:41.466Z,0.90
2017-09-11T09:47:08.858Z,0.90
2017-09-11T09:49:36.247Z,0.90
2017-09-11T09:52:03.631Z,1.07
2017-09-11T09:54:31.090Z,0.90
2017-09-11T09:56:59.093Z,1.33
2017-09-11T09:59:26.474Z,1.17
2017-09-11T10:01:54.208Z,1.10
2017-09-11T10:04:21.578Z,1.47
2017-09-11T10:06:48.960Z,1.23
2017-09-11T10:09:16.342Z,1.23
2017-09-11T10:11:43.723Z,1.30
2017-09-11T10:14:12.143Z,1.40
2017-09-11T10:16:40.166Z,1.93
2017-09-11T10:19:07.550Z,1.33
2017-09-11T10:21:34.946Z,1.30
2017-09-11T10:24:02.422Z,1.67
2017-09-11T10:26:30.441Z,1.80
2017-09-11T10:28:57.815Z,1.07
2017-09-11T10:31:25.195Z,1.00
2017-09-11T10:33:52.591Z,1.40
2017-09-11T10:36:19.980Z,1.00
2017-09-11T10:38:47.355Z,1.10
2017-09-11T10:41:14.822Z,0.93
2017-09-11T10:43:42.207Z,1.00
2017-09-11T10:46:09.597Z,1.23
2017-09-11T10:48:36.978Z,1.10
2017-09-11T10:51:04.365Z,1.00
2017-09-11T10:53:31.743Z,0.87
2017-09-11T10:55:59.157Z,1.03
2017-09-11T10:58:26.534Z,1.50
2017-09-11T11:00:53.944Z,1.00
2017-09-11T11:03:21.326Z,1.43
2017-09-11T11:05:48.791Z,1.27
2017-09-11T11:08:16.227Z,1.13
2017-09-11T11:10:43.612Z,1.40
2017-09-11T11:13:10.995Z,1.30
2017-09-11T11:15:38.386Z,1.47
2017-09-11T11:18:05.758Z,1.57
2017-09-11T11:20:33.147Z,1.47
2017-09-11T11:23:00.523Z,1.43
2017-09-11T11:25:27.924Z,1.17
2017-09-11T11:27:55.299Z,1.10
2017-09-11T11:30:22.678Z,1.53
2017-09-11T11:32:50.063Z,1.50
2017-09-11T11:35:17.442Z,1.50
2017-09-11T11:37:44.826Z,1.57
2017-09-11T11:40:12.206Z,2.33
2017-09-11T11:42:39.635Z,1.30
2017-09-11T11:45:07.070Z,1.63
2017-09-11T11:47:34.458Z,2.07
2017-09-11T11:50:01.838Z,1.83
2017-09-11T11:52:29.542Z,1.60
2017-09-11T11:54:56.922Z,1.20
2017-09-11T11:57:24.407Z,1.40
2017-09-11T11:59:51.782Z,1.60
2017-09-11T12:02:19.171Z,1.60
2017-09-11T12:04:46.554Z,1.93
2017-09-11T12:07:13.963Z,1.80
2017-09-11T12:09:41.382Z,1.53
2017-09-11T12:14:40.359Z,1.73
2017-09-11T12:17:07.746Z,1.67
2017-09-11T12:19:35.127Z,2.20
2017-09-11T12:22:02.502Z,1.83
2017-09-11T12:24:29.886Z,2.30
2017-09-11T12:26:57.270Z,2.47
2017-09-11T12:29:24.662Z,2.17
2017-09-11T12:31:52.055Z,2.30
2017-09-11T12:34:19.443Z,2.30
2017-09-11T12:36:46.826Z,2.17
2017-09-11T12:39:14.359Z,2.43
2017-09-11T12:41:41.739Z,2.33
2017-09-11T12:44:09.784Z,2.13
2017-09-11T12:46:38.950Z,2.50
2017-09-11T12:49:06.677Z,2.20
2017-09-11T12:51:34.231Z,2.33
2017-09-11T12:54:01.627Z,2.33
2017-09-11T12:56:29.002Z,1.80
2017-09-11T12:58:56.390Z,1.20
2017-09-11T13:01:23.771Z,2.10
2017-09-11T13:03:51.155Z,2.20
2017-09-11T13:06:18.978Z,2.33
2017-09-11T13:08:46.371Z,2.83
2017-09-11T13:11:13.752Z,1.70
2017-09-11T13:13:41.137Z,1.83
2017-09-11T13:16:08.523Z,2.70
2017-09-11T13:18:35.921Z,2.10
2017-09-11T13:21:03.311Z,2.77
2017-09-11T13:23:30.698Z,1.40
2017-09-11T13:25:58.202Z,2.10
2017-09-11T13:28:25.591Z,2.27
2017-09-11T13:30:53.218Z,2.00
2017-09-11T13:33:20.590Z,2.43
2017-09-11T13:35:47.984Z,2.60
2017-09-11T13:38:15.364Z,2.60
2017-09-11T13:40:42.754Z,1.67
2017-09-11T13:43:10.135Z,2.70
2017-09-11T13:45:37.545Z,2.47
2017-09-11T13:48:05.574Z,2.13
2017-09-11T13:50:32.966Z,1.70
2017-09-11T13:53:00.347Z,1.97
2017-09-11T13:55:27.742Z,2.20
2017-09-11T13:57:55.134Z,1.97
2017-09-11T14:00:22.531Z,2.53
2017-09-11T14:02:49.902Z,2.10
2017-09-11T14:05:17.281Z,1.67
2017-09-11T14:07:44.666Z,1.90
2017-09-11T14:10:12.051Z,1.93
2017-09-11T14:12:39.494Z,2.30
2017-09-11T14:15:06.862Z,2.20
2017-09-11T14:17:34.258Z,2.07
2017-09-11T14:20:01.642Z,2.13
2017-09-11T14:22:29.041Z,1.83
2017-09-11T14:24:56.426Z,2.27
2017-09-11T14:27:23.911Z,2.10
2017-09-11T14:29:51.290Z,1.97
2017-09-11T14:32:18.683Z,1.80
2017-09-11T14:34:46.062Z,1.90
2017-09-11T14:37:13.471Z,2.00
2017-09-11T14:39:40.858Z,1.73
2017-09-11T14:42:08.250Z,1.93
2017-09-11T14:44:35.626Z,2.27
2017-09-11T14:47:03.062Z,2.07
2017-09-11T14:49:30.438Z,2.00
2017-09-11T14:51:57.822Z,1.90
2017-09-11T14:54:25.230Z,2.20
2017-09-11T14:56:52.618Z,2.30
2017-09-11T14:59:20.009Z,2.50
2017-09-11T15:01:47.387Z,1.60
2017-09-11T15:04:14.790Z,2.10
2017-09-11T15:06:42.186Z,2.47
2017-09-11T15:09:09.566Z,2.00
2017-09-11T15:11:36.959Z,2.27
2017-09-11T15:14:04.350Z,2.20
2017-09-11T15:16:31.734Z,1.90
2017-09-11T15:18:59.127Z,2.60
2017-09-11T15:21:26.502Z,2.27
2017-09-11T15:23:54.002Z,2.40
2017-09-11T15:26:21.379Z,3.07
2017-09-11T15:28:48.807Z,2.07
2017-09-11T15:31:16.187Z,2.20
2017-09-11T15:33:43.569Z,1.70
2017-09-11T15:36:10.956Z,2.10
2017-09-11T15:38:38.350Z,2.80
2017-09-11T15:41:05.730Z,2.53
2017-09-11T15:43:33.114Z,2.30
2017-09-11T15:46:00.599Z,1.70
2017-09-11T15:48:27.999Z,2.20
2017-09-11T15:50:55.383Z,2.17
2017-09-11T15:53:22.763Z,1.90
2017-09-11T15:55:50.147Z,2.00
2017-09-11T15:58:17.542Z,2.53
2017-09-11T16:00:44.930Z,2.23
2017-09-11T16:03:12.314Z,2.40
2017-09-11T16:05:39.715Z,2.20
2017-09-11T16:08:07.212Z,2.43
2017-09-11T16:10:34.594Z,2.13
2017-09-11T16:13:01.988Z,2.80
2017-09-11T16:15:29.378Z,2.70
2017-09-11T16:17:56.758Z,2.13
2017-09-11T16:20:24.153Z,2.40
2017-09-11T16:22:51.530Z,2.00
2017-09-11T16:25:18.919Z,3.33
2017-09-11T16:27:46.298Z,2.00
2017-09-11T16:30:13.690Z,1.50
2017-09-11T16:32:41.071Z,1.80
2017-09-11T16:35:08.515Z,1.90
2017-09-11T16:37:35.899Z,1.57
2017-09-11T16:40:03.282Z,1.73
2017-09-11T16:42:30.671Z,1.83
2017-09-11T16:44:58.067Z,2.43
2017-09-11T16:47:25.464Z,2.40
2017-09-11T16:49:52.845Z,2.20
2017-09-11T16:52:20.231Z,1.47
2017-09-11T16:54:47.615Z,2.67
2017-09-11T16:57:14.998Z,1.77
2017-09-11T16:59:42.387Z,3.20
2017-09-11T17:02:09.781Z,2.07
2017-09-11T17:04:37.159Z,1.90
2017-09-11T17:07:04.555Z,1.70
2017-09-11T17:09:31.939Z,2.50
2017-09-11T17:11:59.334Z,1.90
2017-09-11T17:14:26.714Z,2.03
2017-09-11T17:16:54.168Z,1.93
2017-09-11T17:19:21.542Z,2.40
2017-09-11T17:21:48.926Z,2.00
2017-09-11T17:24:16.315Z,2.33
2017-09-11T17:26:43.720Z,2.13
2017-09-11T17:29:11.143Z,2.37
2017-09-11T17:31:38.594Z,3.00
2017-09-11T17:34:05.994Z,2.13
2017-09-11T17:36:33.383Z,1.83
2017-09-11T17:39:00.762Z,2.07
2017-09-11T17:41:28.155Z,2.07
2017-09-11T17:43:55.574Z,1.93
2017-09-11T17:46:22.966Z,1.97
2017-09-11T17:48:50.349Z,1.73
2017-09-11T17:51:17.743Z,2.30
2017-09-11T17:53:45.131Z,2.00
2017-09-11T17:56:12.510Z,2.70
2017-09-11T17:58:39.893Z,2.10
2017-09-11T18:01:07.337Z,2.50
2017-09-11T18:03:34.719Z,2.20
2017-09-11T18:06:02.096Z,2.13
2017-09-11T18:08:29.486Z,1.93
2017-09-11T18:10:56.869Z,1.93
2017-09-11T18:13:24.270Z,2.77
2017-09-11T18:15:51.646Z,2.17
2017-09-11T18:18:19.042Z,3.80
2017-09-11T18:20:46.428Z,2.60
2017-09-11T18:23:13.815Z,2.67
2017-09-11T18:25:41.194Z,1.97
2017-09-11T18:28:08.574Z,2.13
2017-09-11T18:30:35.967Z,2.47
2017-09-11T18:33:03.346Z,2.23
2017-09-11T18:35:30.734Z,2.10
2017-09-11T18:37:58.110Z,2.37
2017-09-11T18:40:25.520Z,3.00
2017-09-11T18:42:53.010Z,2.80
2017-09-11T18:45:20.468Z,1.93
2017-09-11T18:47:48.795Z,2.40
2017-09-11T18:50:16.191Z,2.37
2017-09-11T18:52:43.574Z,2.40
2017-09-11T18:55:11.026Z,1.80
2017-09-11T18:57:38.411Z,2.30
2017-09-11T19:00:05.806Z,1.80
2017-09-11T19:02:33.196Z,1.70
2017-09-11T19:05:00.586Z,1.80
2017-09-11T19:07:27.991Z,1.70
2017-09-11T19:09:55.378Z,2.50
2017-09-11T19:12:22.763Z,2.53
2017-09-11T19:14:50.168Z,1.90
2017-09-11T19:17:17.548Z,2.23
2017-09-11T19:19:44.938Z,2.10
2017-09-11T19:22:12.326Z,2.27
2017-09-11T19:24:39.729Z,1.63
2017-09-11T19:27:07.104Z,1.70
2017-09-11T19:29:34.482Z,1.80
2017-09-11T19:32:01.875Z,2.70
2017-09-11T19:34:29.259Z,1.60
2017-09-11T19:36:56.638Z,2.23
2017-09-11T19:39:24.024Z,1.57
2017-09-11T19:41:51.463Z,1.90
2017-09-11T19:44:18.843Z,1.50
2017-09-11T19:46:50.954Z,2.53
2017-09-11T19:49:18.330Z,1.73
2017-09-11T19:51:45.714Z,1.77
2017-09-11T19:54:13.102Z,2.50
2017-09-11T19:56:40.502Z,1.90
2017-09-11T19:59:07.963Z,1.47
2017-09-11T20:01:35.370Z,1.53
2017-09-11T20:04:02.755Z,2.60
2017-09-11T20:06:30.149Z,1.60
2017-09-11T20:08:57.535Z,1.47
2017-09-11T20:11:24.918Z,1.47
2017-09-11T20:13:52.307Z,1.77
2017-09-11T20:16:19.686Z,2.10
2017-09-11T20:18:47.074Z,2.47
2017-09-11T20:21:14.559Z,1.53
2017-09-11T20:23:41.966Z,2.17
2017-09-11T20:26:09.346Z,1.50
2017-09-11T20:28:38.624Z,1.70
2017-09-11T20:31:06.043Z,1.90
2017-09-11T20:33:33.422Z,1.37
2017-09-11T20:36:00.822Z,1.50
2017-09-11T20:38:28.212Z,1.93
2017-09-11T20:40:55.596Z,1.80
2017-09-11T20:43:22.982Z,1.97
2017-09-11T20:45:50.362Z,1.60
2017-09-11T20:48:17.751Z,1.90
2017-09-11T20:50:45.151Z,1.40
2017-09-11T20:53:12.530Z,2.00
2017-09-11T20:55:39.906Z,1.87
2017-09-11T20:58:07.291Z,2.73
2017-09-11T21:00:34.675Z,1.87
2017-09-11T21:03:02.070Z,2.07
2017-09-11T21:05:29.448Z,1.40
2017-09-11T21:07:56.846Z,1.83
2017-09-11T21:10:24.235Z,1.93
2017-09-11T21:12:51.615Z,2.23
2017-09-11T21:15:19.002Z,1.73
2017-09-11T21:17:46.391Z,2.47
2017-09-11T21:20:13.770Z,1.47
2017-09-11T21:22:41.154Z,1.53
2017-09-11T21:25:08.551Z,1.50
2017-09-11T21:27:35.938Z,1.83
2017-09-11T21:30:03.794Z,2.25
2017-09-11T21:32:31.175Z,1.70
2017-09-11T21:34:58.562Z,1.90
2017-09-11T21:37:25.938Z,2.00
2017-09-11T21:39:53.323Z,2.00
2017-09-11T21:42:20.706Z,2.07
2017-09-11T21:44:48.104Z,2.10
2017-09-11T21:47:16.418Z,1.83
2017-09-11T21:49:43.807Z,2.03
2017-09-11T21:52:11.286Z,2.10
2017-09-11T21:54:38.679Z,1.80
2017-09-11T21:57:06.099Z,1.53
2017-09-11T21:59:33.482Z,2.10
2017-09-11T22:02:00.875Z,2.23
2017-09-11T22:04:28.254Z,1.70
2017-09-11T22:06:55.645Z,1.90
2017-09-11T22:09:23.019Z,2.23
2017-09-11T22:11:50.422Z,2.03
2017-09-11T22:14:17.886Z,2.50
2017-09-11T22:16:45.274Z,1.60
2017-09-11T22:19:12.658Z,2.10
2017-09-11T22:21:40.046Z,1.60
2017-09-11T22:24:07.431Z,1.80
2017-09-11T22:26:34.822Z,1.93
2017-09-11T22:29:02.203Z,2.60
2017-09-11T22:31:29.598Z,2.42
2017-09-11T22:33:56.975Z,2.10
2017-09-11T22:36:24.367Z,1.90
2017-09-11T22:38:51.766Z,2.20
2017-09-11T22:41:19.157Z,2.87
2017-09-11T22:43:46.650Z,2.07
2017-09-11T22:46:14.103Z,1.80
2017-09-11T22:48:41.566Z,2.10
2017-09-11T22:51:08.956Z,2.60
2017-09-11T22:53:36.342Z,2.20
2017-09-11T22:56:03.727Z,3.03
2017-09-11T22:58:31.187Z,2.00
2017-09-11T23:00:58.644Z,2.40
2017-09-11T23:03:26.099Z,2.10
2017-09-11T23:05:53.484Z,1.83
2017-09-11T23:08:20.876Z,2.33
2017-09-11T23:10:48.254Z,1.90
2017-09-11T23:13:15.648Z,2.10
2017-09-11T23:15:43.040Z,2.20
2017-09-11T23:18:13.826Z,2.33
2017-09-11T23:20:41.194Z,2.23
2017-09-11T23:23:08.584Z,2.57
2017-09-11T23:25:36.079Z,2.57
2017-09-11T23:28:03.470Z,2.17
2017-09-11T23:30:30.855Z,2.13
2017-09-11T23:32:58.338Z,2.37
2017-09-11T23:35:25.745Z,2.20
2017-09-11T23:37:53.105Z,1.90
2017-09-11T23:40:20.491Z,2.63
2017-09-11T23:42:47.883Z,2.53
2017-09-11T23:45:15.270Z,2.40
2017-09-11T23:47:42.658Z,2.17
2017-09-11T23:50:10.051Z,2.10
2017-09-11T23:52:37.430Z,1.80
2017-09-11T23:55:04.822Z,2.37
2017-09-11T23:57:32.303Z,2.37
2017-09-11T23:59:59.758Z,1.57
